createdAt,value
2022-12-23T00:01:02.954Z,18.30
2022-12-23T00:06:18.180Z,15.90
2022-12-23T00:11:29.017Z,18.00
2022-12-23T00:16:41.024Z,17.10
2022-12-23T00:21:50.831Z,17.00
2022-12-23T00:27:00.608Z,26.60
2022-12-23T00:32:10.327Z,18.80
2022-12-23T00:37:20.093Z,15.90
2022-12-23T00:42:47.414Z,17.90
2022-12-23T00:48:14.351Z,15.40
2022-12-23T00:53:24.609Z,15.20
2022-12-23T00:58:34.376Z,18.20
2022-12-23T01:04:01.389Z,16.90
2022-12-23T01:09:11.590Z,15.70
2022-12-23T01:14:21.747Z,16.90
2022-12-23T01:19:32.859Z,19.10
2022-12-23T01:24:42.635Z,15.10
2022-12-23T01:29:52.638Z,14.60
2022-12-23T01:35:02.283Z,12.20
2022-12-23T01:40:14.555Z,12.00
2022-12-23T01:45:29.982Z,13.40
2022-12-23T01:50:46.638Z,13.20
2022-12-23T01:56:01.006Z,9.50
2022-12-23T02:01:29.708Z,13.30
2022-12-23T02:07:01.721Z,19.40
2022-12-23T02:12:47.331Z,13.30
2022-12-23T02:18:13.879Z,31.30
2022-12-23T02:24:01.329Z,112.60
2022-12-23T02:29:46.724Z,107.10
2022-12-23T02:35:08.123Z,98.50
2022-12-23T02:40:30.681Z,46.70
2022-12-23T02:45:45.306Z,132.20
2022-12-23T02:50:58.408Z,113.50
2022-12-23T02:56:11.844Z,95.20
2022-12-23T03:01:24.979Z,93.90
2022-12-23T03:06:42.371Z,87.00
2022-12-23T03:12:07.281Z,49.60
2022-12-23T03:17:39.061Z,77.00
2022-12-23T03:23:02.748Z,66.90
2022-12-23T03:28:23.230Z,70.10
2022-12-23T03:33:37.743Z,31.60
2022-12-23T03:38:50.302Z,59.50
2022-12-23T03:44:05.839Z,36.00
2022-12-23T03:49:22.053Z,39.90
2022-12-23T03:54:42.615Z,43.20
2022-12-23T03:59:54.406Z,28.50
2022-12-23T04:05:22.357Z,27.10
2022-12-23T04:10:33.482Z,39.20
2022-12-23T04:15:45.835Z,33.50
2022-12-23T04:20:55.611Z,37.80
2022-12-23T04:26:05.344Z,38.00
2022-12-23T04:31:15.021Z,31.00
2022-12-23T04:36:24.656Z,32.90
2022-12-23T04:41:34.396Z,36.60
2022-12-23T04:46:44.463Z,42.50
2022-12-23T04:51:54.547Z,38.30
2022-12-23T04:57:04.296Z,24.00
2022-12-23T05:02:14.144Z,25.00
2022-12-23T05:07:24.280Z,24.90
2022-12-23T05:12:34.794Z,21.80
2022-12-23T05:17:44.672Z,38.10
2022-12-23T05:22:54.502Z,23.50
2022-12-23T05:28:04.535Z,24.30
2022-12-23T05:33:14.320Z,23.00
2022-12-23T05:38:24.139Z,25.90
2022-12-23T05:43:40.584Z,28.90
2022-12-23T05:48:55.091Z,24.90
2022-12-23T05:54:06.624Z,25.00
2022-12-23T05:59:16.579Z,22.90
2022-12-23T06:04:26.424Z,17.50
2022-12-23T06:09:36.209Z,18.00
2022-12-23T06:14:45.996Z,18.00
2022-12-23T06:19:55.629Z,19.40
2022-12-23T06:25:05.858Z,16.10
2022-12-23T06:30:17.176Z,19.80
2022-12-23T06:35:26.820Z,13.80
2022-12-23T06:40:36.702Z,19.70
2022-12-23T06:45:49.951Z,16.90
2022-12-23T06:50:59.754Z,17.40
2022-12-23T06:56:10.651Z,16.00
2022-12-23T07:01:20.487Z,14.90
2022-12-23T07:06:30.145Z,15.20
2022-12-23T07:11:39.732Z,13.90
2022-12-23T07:16:49.740Z,18.60
2022-12-23T07:21:59.557Z,12.10
2022-12-23T07:27:09.646Z,11.80
2022-12-23T07:32:19.356Z,15.10
2022-12-23T07:37:29.381Z,14.10
2022-12-23T07:42:47.134Z,15.90
2022-12-23T07:48:00.092Z,14.30
2022-12-23T07:53:09.949Z,19.60
2022-12-23T07:58:19.903Z,12.90
2022-12-23T08:03:29.724Z,35.40
2022-12-23T08:08:41.121Z,46.80
2022-12-23T08:13:53.191Z,52.30
2022-12-23T08:19:03.384Z,30.70
2022-12-23T08:24:13.953Z,15.30
2022-12-23T08:29:23.794Z,62.30
2022-12-23T08:34:34.542Z,67.10
2022-12-23T08:39:45.564Z,41.90
2022-12-23T08:44:55.644Z,45.40
2022-12-23T08:50:05.980Z,41.90
2022-12-23T08:55:16.071Z,48.90
2022-12-23T09:00:26.983Z,61.10
2022-12-23T09:05:40.634Z,42.10
2022-12-23T09:10:50.305Z,53.70
2022-12-23T09:16:00.207Z,43.70
2022-12-23T09:21:17.004Z,61.20
2022-12-23T09:26:30.320Z,29.30
2022-12-23T09:31:39.990Z,29.10
2022-12-23T09:36:55.076Z,21.30
2022-12-23T09:42:17.570Z,24.70
2022-12-23T09:47:31.102Z,35.00
2022-12-23T09:52:51.572Z,30.80
2022-12-23T09:58:09.402Z,43.40
2022-12-23T10:03:27.704Z,32.30
2022-12-23T10:08:43.408Z,33.60
2022-12-23T10:13:58.523Z,43.60
2022-12-23T10:19:15.674Z,55.80
2022-12-23T10:24:29.931Z,37.00
2022-12-23T10:29:40.388Z,34.20
2022-12-23T10:34:58.890Z,47.70
2022-12-23T10:40:22.690Z,36.50
2022-12-23T10:45:52.391Z,37.70
2022-12-23T10:51:06.747Z,45.20
2022-12-23T10:56:17.193Z,29.80
2022-12-23T11:01:28.711Z,27.00
2022-12-23T11:06:44.167Z,30.40
2022-12-23T11:12:06.656Z,45.00
2022-12-23T11:17:28.418Z,37.20
2022-12-23T11:22:38.468Z,67.00
2022-12-23T11:27:50.196Z,41.00
2022-12-23T11:33:00.538Z,33.40
2022-12-23T11:38:18.000Z,23.40
2022-12-23T11:43:29.578Z,25.20
2022-12-23T11:48:39.472Z,49.00
2022-12-23T11:53:49.582Z,52.60
2022-12-23T11:59:05.505Z,57.70
2022-12-23T12:04:26.330Z,45.80
2022-12-23T12:09:41.263Z,30.10
2022-12-23T12:14:55.402Z,49.20
2022-12-23T12:20:20.450Z,51.40
2022-12-23T12:25:44.498Z,57.70
2022-12-23T12:31:04.229Z,31.50
2022-12-23T12:36:22.918Z,29.90
2022-12-23T12:41:41.435Z,30.10
2022-12-23T12:46:57.628Z,26.50
2022-12-23T12:52:13.004Z,30.70
2022-12-23T12:57:25.146Z,24.90
2022-12-23T13:03:13.016Z,24.70
2022-12-23T13:09:01.683Z,35.60
2022-12-23T13:14:26.329Z,28.40
2022-12-23T13:19:49.677Z,27.20
2022-12-23T13:25:10.267Z,28.50
2022-12-23T13:30:21.835Z,31.00
2022-12-23T13:35:49.700Z,44.90
2022-12-23T13:41:08.368Z,63.80
2022-12-23T13:46:33.059Z,182.60
2022-12-23T13:51:55.020Z,119.90
2022-12-23T13:57:18.297Z,123.80
2022-12-23T14:02:54.651Z,94.30
2022-12-23T14:08:07.471Z,153.40
2022-12-23T14:13:24.741Z,138.40
2022-12-23T14:19:16.712Z,137.20
2022-12-23T14:25:04.060Z,156.40
2022-12-23T14:30:23.358Z,218.40
2022-12-23T14:36:15.769Z,185.00
2022-12-23T14:41:38.367Z,52.40
2022-12-23T14:47:01.803Z,67.90
2022-12-23T14:53:00.570Z,100.40
2022-12-23T14:58:49.252Z,114.40
2022-12-23T15:04:07.498Z,87.00
2022-12-23T15:09:28.281Z,89.40
2022-12-23T15:14:46.305Z,79.80
2022-12-23T15:20:03.877Z,62.80
2022-12-23T15:25:26.688Z,41.00
2022-12-23T15:30:48.974Z,51.00
2022-12-23T15:35:59.463Z,38.60
2022-12-23T15:41:19.093Z,43.90
2022-12-23T15:46:30.624Z,35.40
2022-12-23T15:52:07.260Z,32.90
2022-12-23T15:57:23.726Z,26.80
2022-12-23T16:08:30.288Z,22.80
2022-12-23T16:13:46.736Z,29.10
2022-12-23T16:18:57.994Z,25.90
2022-12-23T16:24:14.716Z,29.90
2022-12-23T16:29:25.061Z,31.40
2022-12-23T16:34:35.774Z,41.80
2022-12-23T16:39:46.348Z,38.60
2022-12-23T16:44:56.076Z,73.70
2022-12-23T16:50:06.712Z,33.40
2022-12-23T16:55:22.551Z,80.00
2022-12-23T17:00:32.416Z,82.70
2022-12-23T17:05:42.003Z,83.50
2022-12-23T17:10:52.129Z,42.40
2022-12-23T17:16:02.516Z,39.00
2022-12-23T17:21:24.738Z,71.50
2022-12-23T17:26:34.865Z,98.40
2022-12-23T17:31:46.072Z,62.80
2022-12-23T17:36:56.020Z,44.30
2022-12-23T17:42:06.347Z,65.40
2022-12-23T17:47:20.371Z,54.50
2022-12-23T17:52:30.371Z,110.80
2022-12-23T17:57:40.439Z,138.70
2022-12-23T18:02:50.961Z,136.80
2022-12-23T18:08:04.307Z,76.80
2022-12-23T18:13:22.557Z,86.10
2022-12-23T18:18:43.802Z,60.70
2022-12-23T18:23:58.955Z,56.60
2022-12-23T18:29:08.909Z,55.20
2022-12-23T18:34:21.337Z,38.40
2022-12-23T18:39:31.102Z,36.00
2022-12-23T18:44:40.941Z,54.90
2022-12-23T18:49:50.468Z,44.50
2022-12-23T18:55:00.365Z,23.30
2022-12-23T19:00:16.612Z,27.80
2022-12-23T19:05:30.241Z,32.40
2022-12-23T19:10:39.945Z,28.30
2022-12-23T19:15:50.204Z,28.20
2022-12-23T19:20:59.865Z,29.00
2022-12-23T19:26:10.049Z,25.60
2022-12-23T19:31:20.988Z,31.30
2022-12-23T19:36:31.268Z,34.20
2022-12-23T19:41:40.879Z,28.90
2022-12-23T19:46:51.742Z,29.00
2022-12-23T19:52:01.819Z,28.50
2022-12-23T19:57:11.690Z,32.20
2022-12-23T20:02:23.744Z,28.00
2022-12-23T20:07:33.449Z,30.70
2022-12-23T20:12:43.850Z,28.30
2022-12-23T20:17:53.766Z,27.60
2022-12-23T20:23:03.567Z,26.70
2022-12-23T20:28:13.452Z,27.20
2022-12-23T20:33:23.801Z,26.70
2022-12-23T20:38:35.010Z,27.00
2022-12-23T20:43:56.837Z,21.70
2022-12-23T20:49:15.227Z,36.20
2022-12-23T20:54:32.118Z,30.60
2022-12-23T20:59:43.600Z,22.30
2022-12-23T21:04:53.234Z,23.90
2022-12-23T21:10:03.153Z,20.80
2022-12-23T21:15:13.848Z,21.20
2022-12-23T21:20:24.246Z,16.90
2022-12-23T21:25:34.140Z,10.30
2022-12-23T21:30:45.070Z,8.10
2022-12-23T21:35:55.037Z,5.50
2022-12-23T21:41:11.182Z,5.80
2022-12-23T21:46:23.573Z,8.60
2022-12-23T21:51:39.996Z,6.80
2022-12-23T21:56:50.883Z,8.90
2022-12-23T22:02:01.073Z,7.70
2022-12-23T22:07:11.227Z,7.70
2022-12-23T22:12:20.904Z,9.00
2022-12-23T22:17:30.607Z,8.30
2022-12-23T22:22:40.175Z,18.70
2022-12-23T22:27:50.028Z,407.70
2022-12-23T22:33:00.028Z,208.60
2022-12-23T22:38:09.707Z,111.50
2022-12-23T22:43:19.725Z,86.20
2022-12-23T22:48:30.586Z,61.20
2022-12-23T22:53:40.672Z,41.30
2022-12-23T22:58:50.665Z,19.50
2022-12-23T23:04:03.397Z,7.40
2022-12-23T23:09:18.557Z,18.60
2022-12-23T23:14:28.473Z,17.20
2022-12-23T23:19:38.165Z,10.50
2022-12-23T23:24:48.323Z,10.80
2022-12-23T23:29:58.027Z,11.10
2022-12-23T23:35:10.851Z,13.00
2022-12-23T23:40:21.237Z,31.20
2022-12-23T23:45:31.946Z,13.60
2022-12-23T23:50:42.289Z,14.60
2022-12-23T23:55:51.997Z,14.00
